createdAt,value
2023-04-16T00:00:20.852Z,82.0398
2023-04-16T00:01:23.770Z,82.0473
2023-04-16T00:02:26.829Z,82.2899
2023-04-16T00:03:29.843Z,82.6585
2023-04-16T00:04:32.636Z,82.8415
2023-04-16T00:05:35.534Z,82.6809
2023-04-16T00:06:38.502Z,82.5851
2023-04-16T00:07:41.431Z,82.5242
2023-04-16T00:08:44.358Z,82.4867
2023-04-16T00:09:47.301Z,82.4473
2023-04-16T00:10:50.263Z,82.1346
2023-04-16T00:11:53.204Z,81.8776
2023-04-16T00:12:56.152Z,82.0039
2023-04-16T00:13:59.075Z,82.3909
2023-04-16T00:15:02.076Z,82.7845
2023-04-16T00:16:04.958Z,82.7285
2023-04-16T00:17:08.034Z,82.8072
2023-04-16T00:18:10.885Z,82.9114
2023-04-16T00:19:13.860Z,82.8998
2023-04-16T00:20:16.772Z,82.7756
2023-04-16T00:21:19.706Z,82.9491
2023-04-16T00:22:22.664Z,82.7540
2023-04-16T00:23:25.593Z,82.2642
2023-04-16T00:24:28.589Z,82.6526
2023-04-16T00:25:31.480Z,82.6938
2023-04-16T00:26:34.415Z,82.6926
2023-04-16T00:27:37.409Z,83.0050
2023-04-16T00:28:40.304Z,82.8350
2023-04-16T00:29:43.254Z,82.6527
2023-04-16T00:30:46.224Z,82.3565
2023-04-16T00:31:49.138Z,82.3055
2023-04-16T00:32:52.193Z,82.2846
2023-04-16T00:33:55.023Z,82.4785
2023-04-16T00:34:57.964Z,82.2367
2023-04-16T00:36:00.951Z,82.7026
2023-04-16T00:37:03.926Z,82.8676
2023-04-16T00:38:06.815Z,83.0533
2023-04-16T00:39:09.883Z,82.6753
2023-04-16T00:40:12.713Z,82.7303
2023-04-16T00:41:15.632Z,82.2435
2023-04-16T00:42:18.591Z,82.5101
2023-04-16T00:43:21.541Z,81.9460
2023-04-16T00:44:24.469Z,81.1421
2023-04-16T00:45:27.456Z,80.7574
2023-04-16T00:46:30.383Z,81.3469
2023-04-16T00:47:33.456Z,81.0533
2023-04-16T00:48:36.257Z,80.7506
2023-04-16T00:49:39.184Z,80.8735
2023-04-16T00:50:42.150Z,81.2062
2023-04-16T00:51:45.061Z,81.3875
2023-04-16T00:52:48.023Z,81.3518
2023-04-16T00:53:50.959Z,81.6956
2023-04-16T00:54:53.919Z,81.5657
2023-04-16T00:55:56.895Z,81.7169
2023-04-16T00:56:59.800Z,81.8865
2023-04-16T00:58:02.756Z,82.0007
2023-04-16T00:59:05.690Z,81.7629
2023-04-16T01:00:08.662Z,81.8313
2023-04-16T01:01:11.608Z,82.2457
2023-04-16T01:02:14.743Z,82.5246
2023-04-16T01:03:17.624Z,82.6031
2023-04-16T01:04:20.509Z,82.2884
2023-04-16T01:05:23.413Z,82.5236
2023-04-16T01:06:26.298Z,82.2920
2023-04-16T01:07:29.231Z,82.3890
2023-04-16T01:08:32.243Z,82.5418
2023-04-16T01:09:35.133Z,82.5243
2023-04-16T01:10:38.134Z,82.6363
2023-04-16T01:11:41.035Z,82.6347
2023-04-16T01:12:43.958Z,82.4586
2023-04-16T01:13:46.917Z,82.7861
2023-04-16T01:14:49.839Z,82.4576
2023-04-16T01:15:52.855Z,82.7440
2023-04-16T01:16:55.736Z,82.6265
2023-04-16T01:17:58.762Z,82.9836
2023-04-16T01:19:01.659Z,82.9202
2023-04-16T01:20:04.652Z,82.6973
2023-04-16T01:21:07.507Z,82.5826
2023-04-16T01:22:10.468Z,82.3906
2023-04-16T01:23:13.416Z,82.3927
2023-04-16T01:24:16.346Z,82.6523
2023-04-16T01:25:19.287Z,82.9337
2023-04-16T01:26:22.226Z,83.0436
2023-04-16T01:27:25.191Z,82.9966
2023-04-16T01:28:28.300Z,82.8128
2023-04-16T01:29:31.062Z,83.0512
2023-04-16T01:30:34.004Z,82.8823
2023-04-16T01:31:36.970Z,82.7156
2023-04-16T01:32:39.904Z,82.7804
2023-04-16T01:33:42.930Z,82.6653
2023-04-16T01:34:45.777Z,82.8845
2023-04-16T01:35:48.728Z,82.7803
2023-04-16T01:36:51.807Z,82.6951
2023-04-16T01:37:54.595Z,82.8239
2023-04-16T01:38:57.606Z,82.9054
2023-04-16T01:40:00.489Z,83.1781
2023-04-16T01:41:03.424Z,83.4370
2023-04-16T01:42:06.570Z,83.5549
2023-04-16T01:43:09.430Z,83.3695
2023-04-16T01:44:12.320Z,83.0070
2023-04-16T01:45:15.204Z,83.4231
2023-04-16T01:46:18.213Z,83.6282
2023-04-16T01:47:21.135Z,83.8345
2023-04-16T01:48:24.027Z,83.8507
2023-04-16T01:49:26.967Z,83.5149
2023-04-16T01:50:29.950Z,83.3515
2023-04-16T01:51:32.860Z,83.6434
2023-04-16T01:52:35.821Z,83.9523
2023-04-16T01:53:38.754Z,84.1264
2023-04-16T01:54:41.693Z,84.1333
2023-04-16T01:55:44.810Z,83.9204
2023-04-16T01:56:47.591Z,84.0228
2023-04-16T01:57:50.577Z,83.8588
2023-04-16T01:58:53.496Z,83.7018
2023-04-16T01:59:56.449Z,83.8347
2023-04-16T02:00:59.438Z,83.8214
2023-04-16T02:02:02.404Z,83.8400
2023-04-16T02:03:05.357Z,84.1399
2023-04-16T02:04:08.255Z,83.9421
2023-04-16T02:05:11.168Z,83.4746
2023-04-16T02:06:14.187Z,84.2108
2023-04-16T02:07:17.070Z,84.1661
2023-04-16T02:08:20.036Z,84.5421
2023-04-16T02:09:22.939Z,84.4250
2023-04-16T02:10:25.880Z,84.6066
2023-04-16T02:11:28.831Z,84.7835
2023-04-16T02:12:31.785Z,84.8361
2023-04-16T02:13:34.730Z,84.6779
2023-04-16T02:14:37.680Z,84.7888
2023-04-16T02:15:40.631Z,84.5666
2023-04-16T02:16:43.577Z,84.7907
2023-04-16T02:17:46.694Z,84.6667
2023-04-16T02:18:49.420Z,84.4067
2023-04-16T02:19:52.477Z,84.0969
2023-04-16T02:20:55.317Z,84.1060
2023-04-16T02:21:58.276Z,84.0848
2023-04-16T02:23:01.204Z,83.9988
2023-04-16T02:24:04.136Z,83.6142
2023-04-16T02:25:07.076Z,84.0907
2023-04-16T02:26:10.028Z,83.7495
2023-04-16T02:27:13.108Z,83.8365
2023-04-16T02:28:15.955Z,83.9670
2023-04-16T02:29:18.852Z,83.6516
2023-04-16T02:30:21.797Z,83.9810
2023-04-16T02:31:24.844Z,84.0306
2023-04-16T02:32:27.723Z,84.0154
2023-04-16T02:33:30.663Z,83.9819
2023-04-16T02:34:33.610Z,84.4300
2023-04-16T02:35:36.519Z,84.2991
2023-04-16T02:36:39.497Z,83.9529
2023-04-16T02:37:42.417Z,84.3661
2023-04-16T02:38:45.407Z,84.3452
2023-04-16T02:39:48.297Z,84.4911
2023-04-16T02:40:51.259Z,84.4383
2023-04-16T02:41:54.173Z,83.8552
2023-04-16T02:42:57.208Z,84.0110
2023-04-16T02:44:00.081Z,82.8377
2023-04-16T02:45:03.035Z,83.3008
2023-04-16T02:46:06.087Z,83.0056
2023-04-16T02:47:08.914Z,83.0713
2023-04-16T02:48:11.911Z,83.0525
2023-04-16T02:49:14.822Z,83.1524
2023-04-16T02:50:17.768Z,83.0438
2023-04-16T02:51:20.746Z,82.9328
2023-04-16T02:52:23.648Z,83.1209
2023-04-16T02:53:26.642Z,83.6448
2023-04-16T02:54:29.533Z,83.5136
2023-04-16T02:55:32.489Z,83.7470
2023-04-16T02:56:35.433Z,84.0201
2023-04-16T02:57:38.426Z,84.2079
2023-04-16T02:58:41.328Z,84.1070
2023-04-16T02:59:44.263Z,84.5560
2023-04-16T03:00:47.217Z,85.0247
2023-04-16T03:01:50.255Z,85.4423
2023-04-16T03:02:53.139Z,85.6148
2023-04-16T03:03:56.089Z,85.6467
2023-04-16T03:04:59.041Z,85.9022
2023-04-16T03:06:01.964Z,85.7592
2023-04-16T03:07:04.872Z,85.7693
2023-04-16T03:08:07.810Z,85.6260
2023-04-16T03:09:10.976Z,85.2174
2023-04-16T03:10:13.723Z,85.1741
2023-04-16T03:11:16.687Z,84.9707
2023-04-16T03:12:19.792Z,84.9999
2023-04-16T03:13:22.528Z,84.9885
2023-04-16T03:14:25.468Z,84.8288
2023-04-16T03:15:28.503Z,84.6143
2023-04-16T03:16:31.368Z,84.5470
2023-04-16T03:17:34.378Z,84.4548
2023-04-16T03:18:37.261Z,84.6971
2023-04-16T03:19:40.194Z,84.9539
2023-04-16T03:20:43.160Z,85.0533
2023-04-16T03:21:46.090Z,85.1397
2023-04-16T03:22:49.043Z,85.1794
2023-04-16T03:23:52.003Z,85.1395
2023-04-16T03:24:54.935Z,85.3228
2023-04-16T03:25:57.873Z,85.6130
2023-04-16T03:27:00.865Z,85.5971
2023-04-16T03:28:03.826Z,85.6867
2023-04-16T03:29:07.009Z,85.7507
2023-04-16T03:30:09.642Z,85.7703
2023-04-16T03:31:12.624Z,85.9106
2023-04-16T03:32:15.652Z,85.9921
2023-04-16T03:33:18.479Z,85.7843
2023-04-16T03:34:21.475Z,86.2169
2023-04-16T03:35:24.368Z,85.6754
2023-04-16T03:36:27.534Z,85.7775
2023-04-16T03:37:30.305Z,85.3839
2023-04-16T03:38:33.180Z,85.7152
2023-04-16T03:39:36.151Z,85.4255
2023-04-16T03:40:39.082Z,85.5436
2023-04-16T03:41:42.044Z,85.4456
2023-04-16T03:42:45.000Z,85.6393
2023-04-16T03:43:47.929Z,85.9278
2023-04-16T03:44:50.867Z,85.9071
2023-04-16T03:45:53.840Z,86.0173
2023-04-16T03:46:56.970Z,86.1405
2023-04-16T03:47:59.714Z,86.2840
2023-04-16T03:49:02.640Z,86.1405
2023-04-16T03:50:05.598Z,86.0386
2023-04-16T03:51:08.530Z,85.7869
2023-04-16T03:52:11.493Z,85.0352
2023-04-16T03:53:14.429Z,85.2060
2023-04-16T03:54:17.384Z,85.6598
2023-04-16T03:55:20.298Z,85.7265
2023-04-16T03:56:23.262Z,85.9839
2023-04-16T03:57:26.252Z,86.2293
2023-04-16T03:58:29.148Z,85.9718
2023-04-16T03:59:32.094Z,85.5042
2023-04-16T04:00:35.042Z,85.7815
2023-04-16T04:01:38.057Z,85.8605
2023-04-16T04:02:41.151Z,85.4735
2023-04-16T04:03:44.106Z,85.6268
2023-04-16T04:04:47.009Z,85.5768
2023-04-16T04:05:49.833Z,85.5820
2023-04-16T04:06:52.843Z,85.8284
2023-04-16T04:07:55.729Z,86.1892
2023-04-16T04:08:58.683Z,86.2639
2023-04-16T04:10:01.683Z,86.2578
2023-04-16T04:11:04.571Z,86.2618
2023-04-16T04:12:07.525Z,85.9068
2023-04-16T04:13:10.513Z,85.3262
2023-04-16T04:14:13.399Z,85.3262
2023-04-16T04:15:16.332Z,85.8913
2023-04-16T04:16:19.278Z,85.8928
2023-04-16T04:17:22.359Z,86.0335
2023-04-16T04:18:25.154Z,86.1564
2023-04-16T04:19:28.172Z,86.2480
2023-04-16T04:20:31.112Z,86.2419
2023-04-16T04:21:34.027Z,86.5160
2023-04-16T04:22:37.000Z,86.5842
2023-04-16T04:23:39.901Z,86.6753
2023-04-16T04:24:42.842Z,86.9512
2023-04-16T04:25:45.830Z,87.0501
2023-04-16T04:26:48.740Z,87.1646
2023-04-16T04:27:51.675Z,87.1180
2023-04-16T04:28:54.618Z,87.0081
2023-04-16T04:29:57.588Z,86.5418
2023-04-16T04:31:00.558Z,86.2316
2023-04-16T04:32:03.500Z,86.7258
2023-04-16T04:33:06.511Z,86.6759
2023-04-16T04:34:09.352Z,86.5837
2023-04-16T04:35:12.315Z,86.2440
2023-04-16T04:36:15.382Z,86.1423
2023-04-16T04:37:18.198Z,86.1053
2023-04-16T04:38:21.182Z,86.1806
2023-04-16T04:39:24.106Z,86.4405
2023-04-16T04:40:27.038Z,86.6736
2023-04-16T04:41:29.997Z,87.0112
2023-04-16T04:42:32.947Z,86.9917
2023-04-16T04:43:35.892Z,87.1003
2023-04-16T04:44:38.801Z,86.8994
2023-04-16T04:45:41.741Z,86.5772
2023-04-16T04:46:44.703Z,86.6249
2023-04-16T04:47:47.686Z,86.4779
2023-04-16T04:48:50.573Z,86.3854
2023-04-16T04:49:53.545Z,86.5904
2023-04-16T04:50:56.464Z,86.4496
2023-04-16T04:51:59.413Z,86.7222
2023-04-16T04:53:02.337Z,86.8466
2023-04-16T04:54:05.277Z,86.8357
2023-04-16T04:55:08.243Z,86.7500
2023-04-16T04:56:12.772Z,86.6447
2023-04-16T04:57:14.113Z,86.3020
2023-04-16T04:58:17.058Z,86.1820
2023-04-16T04:59:20.016Z,86.2492
2023-04-16T05:00:22.988Z,86.2713
2023-04-16T05:01:25.981Z,86.6201
2023-04-16T05:02:28.922Z,86.8589
2023-04-16T05:03:31.884Z,86.6299
2023-04-16T05:04:34.783Z,85.8066
2023-04-16T05:05:37.736Z,86.0128
2023-04-16T05:06:40.629Z,85.5935
2023-04-16T05:07:43.600Z,85.4578
2023-04-16T05:08:46.521Z,85.7944
2023-04-16T05:09:49.477Z,85.8380
2023-04-16T05:10:52.432Z,85.7078
2023-04-16T05:11:55.391Z,85.1674
2023-04-16T05:12:58.323Z,85.1127
2023-04-16T05:14:01.264Z,85.1317
2023-04-16T05:15:04.194Z,86.2010
2023-04-16T05:16:07.164Z,85.9707
2023-04-16T05:17:10.126Z,85.4287
2023-04-16T05:18:13.081Z,86.1698
2023-04-16T05:19:15.987Z,85.7970
2023-04-16T05:20:19.002Z,85.3149
2023-04-16T05:21:21.887Z,85.5729
2023-04-16T05:22:24.865Z,85.8542
2023-04-16T05:23:27.787Z,86.1584
2023-04-16T05:24:30.898Z,86.2000
2023-04-16T05:25:33.697Z,85.9521
2023-04-16T05:26:36.654Z,86.0382
2023-04-16T05:27:39.576Z,85.9898
2023-04-16T05:28:42.531Z,85.8946
2023-04-16T05:29:45.469Z,85.5160
2023-04-16T05:30:48.437Z,84.7966
2023-04-16T05:31:51.434Z,84.3945
2023-04-16T05:32:54.383Z,84.3387
2023-04-16T05:33:57.264Z,85.0443
2023-04-16T05:35:00.216Z,84.9012
2023-04-16T05:36:03.161Z,85.3896
2023-04-16T05:37:06.099Z,85.0378
2023-04-16T05:38:09.037Z,84.6484
2023-04-16T05:39:12.094Z,84.6657
2023-04-16T05:40:14.955Z,84.6353
2023-04-16T05:41:17.911Z,84.4996
2023-04-16T05:42:20.836Z,84.5351
2023-04-16T05:43:24.035Z,84.5734
2023-04-16T05:44:26.725Z,85.0395
2023-04-16T05:45:29.667Z,85.5118
2023-04-16T05:46:32.737Z,85.6037
2023-04-16T05:47:35.630Z,85.9103
2023-04-16T05:48:38.564Z,85.6178
2023-04-16T05:49:41.462Z,85.5821
2023-04-16T05:50:44.398Z,85.5055
2023-04-16T05:51:47.413Z,85.6252
2023-04-16T05:52:50.309Z,85.9209
2023-04-16T05:53:53.231Z,85.9566
2023-04-16T05:54:56.196Z,86.1263
2023-04-16T05:55:59.189Z,86.0394
2023-04-16T05:57:02.135Z,86.1058
2023-04-16T05:58:05.019Z,86.3838
2023-04-16T05:59:08.287Z,86.3183
2023-04-16T06:00:10.955Z,86.3857
2023-04-16T06:01:13.913Z,86.4266
2023-04-16T06:02:16.870Z,86.3888
2023-04-16T06:03:19.790Z,86.5151
2023-04-16T06:04:22.725Z,86.2803
2023-04-16T06:05:25.664Z,86.0780
2023-04-16T06:06:28.571Z,85.9854
2023-04-16T06:07:31.519Z,86.3310
2023-04-16T06:08:34.495Z,86.4595
2023-04-16T06:09:37.411Z,86.6109
2023-04-16T06:10:40.379Z,86.6269
2023-04-16T06:11:43.317Z,86.6482
2023-04-16T06:12:46.309Z,86.5106
2023-04-16T06:13:49.299Z,86.4188
2023-04-16T06:14:52.162Z,86.0927
2023-04-16T06:15:55.161Z,86.0164
2023-04-16T06:16:58.074Z,85.9809
2023-04-16T06:18:01.209Z,86.4568
2023-04-16T06:19:03.926Z,86.3801
2023-04-16T06:20:06.874Z,86.1871
2023-04-16T06:21:09.847Z,86.2139
2023-04-16T06:22:12.749Z,86.0500
2023-04-16T06:23:15.707Z,86.3050
2023-04-16T06:24:18.655Z,86.2933
2023-04-16T06:25:21.617Z,86.3902
2023-04-16T06:26:24.570Z,86.1919
2023-04-16T06:27:27.486Z,85.9941
2023-04-16T06:28:30.429Z,85.0554
2023-04-16T06:29:40.586Z,85.6212
2023-04-16T06:30:36.349Z,85.9991
2023-04-16T06:31:39.297Z,86.1919
2023-04-16T06:32:42.320Z,85.9780
2023-04-16T06:33:45.159Z,86.4560
2023-04-16T06:34:48.095Z,86.6802
2023-04-16T06:35:51.048Z,86.8871
2023-04-16T06:36:53.999Z,87.1512
2023-04-16T06:37:56.947Z,87.5844
2023-04-16T06:38:59.899Z,87.4750
2023-04-16T06:40:02.847Z,87.3050
2023-04-16T06:41:05.955Z,87.3362
2023-04-16T06:42:08.738Z,87.3294
2023-04-16T06:43:11.653Z,87.1463
2023-04-16T06:44:14.597Z,87.1211
2023-04-16T06:45:17.556Z,87.1881
2023-04-16T06:46:20.502Z,86.1993
2023-04-16T06:47:23.544Z,86.4857
2023-04-16T06:48:26.429Z,86.5385
2023-04-16T06:49:29.331Z,85.1922
2023-04-16T06:50:32.300Z,85.8969
2023-04-16T06:51:35.226Z,85.3100
2023-04-16T06:52:38.323Z,84.8338
2023-04-16T06:53:41.109Z,85.5990
2023-04-16T06:54:44.036Z,85.2295
2023-04-16T06:55:46.993Z,85.5632
2023-04-16T06:56:49.974Z,85.4459
2023-04-16T06:57:52.903Z,85.2477
2023-04-16T06:58:55.828Z,86.0619
2023-04-16T06:59:58.780Z,86.5324
2023-04-16T07:01:01.746Z,86.5775
2023-04-16T07:02:04.754Z,87.1078
2023-04-16T07:03:07.919Z,87.3280
2023-04-16T07:04:10.682Z,87.1541
2023-04-16T07:05:13.494Z,86.9433
2023-04-16T07:06:16.440Z,86.8704
2023-04-16T07:07:19.463Z,86.8986
2023-04-16T07:08:22.337Z,86.8170
2023-04-16T07:09:25.309Z,86.9771
2023-04-16T07:10:28.225Z,87.2251
2023-04-16T07:11:31.161Z,87.4464
2023-04-16T07:12:34.116Z,87.2357
2023-04-16T07:13:37.194Z,87.0216
2023-04-16T07:14:39.994Z,86.9143
2023-04-16T07:15:42.972Z,86.7621
2023-04-16T07:16:45.920Z,86.8013
2023-04-16T07:17:48.882Z,86.9474
2023-04-16T07:18:51.778Z,87.1879
2023-04-16T07:19:54.754Z,87.4188
2023-04-16T07:20:57.715Z,86.4248
2023-04-16T07:22:00.611Z,85.6726
2023-04-16T07:23:03.607Z,85.6443
2023-04-16T07:24:06.507Z,86.0416
2023-04-16T07:25:09.520Z,86.2913
2023-04-16T07:26:12.423Z,86.3338
2023-04-16T07:27:15.450Z,86.4016
2023-04-16T07:28:18.300Z,86.4279
2023-04-16T07:29:21.258Z,85.8199
2023-04-16T07:30:24.206Z,85.3239
2023-04-16T07:31:27.348Z,85.1695
2023-04-16T07:32:30.101Z,85.3138
2023-04-16T07:33:33.049Z,85.1126
2023-04-16T07:34:35.966Z,85.2021
2023-04-16T07:35:38.943Z,85.4411
2023-04-16T07:36:41.937Z,85.2281
2023-04-16T07:37:44.801Z,85.2189
2023-04-16T07:38:47.751Z,84.9381
2023-04-16T07:39:50.697Z,85.5863
2023-04-16T07:40:53.672Z,85.7003
2023-04-16T07:41:56.592Z,85.4268
2023-04-16T07:42:59.655Z,84.5641
2023-04-16T07:44:02.525Z,84.3260
2023-04-16T07:45:05.489Z,83.5098
2023-04-16T07:46:08.480Z,83.5761
2023-04-16T07:47:11.301Z,83.7536
2023-04-16T07:48:14.289Z,83.9527
2023-04-16T07:49:17.197Z,84.3817
2023-04-16T07:50:20.142Z,84.3616
2023-04-16T07:51:23.110Z,84.2901
2023-04-16T07:52:26.028Z,83.9301
2023-04-16T07:53:28.966Z,84.3573
2023-04-16T07:54:31.952Z,84.0527
2023-04-16T07:55:34.850Z,83.9771
2023-04-16T07:56:37.797Z,84.0868
2023-04-16T07:57:40.779Z,83.8476
2023-04-16T07:58:43.740Z,83.6689
2023-04-16T07:59:46.654Z,84.2334
2023-04-16T08:00:50.872Z,83.8015
2023-04-16T08:01:52.566Z,83.8470
2023-04-16T08:02:55.583Z,84.1752
2023-04-16T08:03:58.496Z,84.8741
2023-04-16T08:05:01.455Z,85.3140
2023-04-16T08:06:04.302Z,85.0621
2023-04-16T08:07:07.285Z,85.2418
2023-04-16T08:08:10.185Z,85.2275
2023-04-16T08:09:13.242Z,85.3664
2023-04-16T08:10:16.079Z,85.4323
2023-04-16T08:11:19.041Z,84.8004
2023-04-16T08:12:21.981Z,85.2398
2023-04-16T08:13:24.992Z,85.8765
2023-04-16T08:14:27.939Z,85.7376
2023-04-16T08:15:30.917Z,85.2303
2023-04-16T08:16:33.835Z,84.9177
2023-04-16T08:17:36.892Z,85.2429
2023-04-16T08:18:39.740Z,84.7722
2023-04-16T08:19:42.692Z,84.3744
2023-04-16T08:20:45.617Z,84.1425
2023-04-16T08:21:48.595Z,83.7423
2023-04-16T08:22:51.522Z,83.7314
2023-04-16T08:23:54.474Z,83.6476
2023-04-16T08:24:57.401Z,83.9936
2023-04-16T08:26:00.352Z,84.0676
2023-04-16T08:27:17.279Z,84.3887
2023-04-16T08:28:06.271Z,84.5112
2023-04-16T08:29:09.450Z,84.4440
2023-04-16T08:30:12.162Z,84.1829
2023-04-16T08:31:15.136Z,83.6165
2023-04-16T08:32:18.035Z,83.7837
2023-04-16T08:33:20.988Z,82.9354
2023-04-16T08:34:23.980Z,83.0018
2023-04-16T08:35:26.875Z,82.9887
2023-04-16T08:36:29.821Z,83.3578
2023-04-16T08:37:32.786Z,83.7785
2023-04-16T08:38:35.832Z,84.1927
2023-04-16T08:39:38.705Z,84.3676
2023-04-16T08:40:41.777Z,84.7866
2023-04-16T08:41:44.636Z,84.8507
2023-04-16T08:42:47.522Z,84.8413
2023-04-16T08:43:50.525Z,84.7828
2023-04-16T08:44:53.407Z,84.8141
2023-04-16T08:45:56.475Z,84.9921
2023-04-16T08:46:59.444Z,84.9930
2023-04-16T08:48:02.360Z,84.6735
2023-04-16T08:49:05.207Z,84.1111
2023-04-16T08:50:08.180Z,83.7227
2023-04-16T08:51:11.257Z,84.1918
2023-04-16T08:52:14.024Z,84.8248
2023-04-16T08:53:16.978Z,84.4918
2023-04-16T08:54:19.920Z,84.3737
2023-04-16T08:55:22.870Z,84.4190
2023-04-16T08:56:25.832Z,84.7296
2023-04-16T08:57:28.782Z,83.9670
2023-04-16T08:58:31.713Z,83.9341
2023-04-16T08:59:34.649Z,84.1409
2023-04-16T09:00:37.621Z,84.4816
2023-04-16T09:01:40.629Z,84.4662
2023-04-16T09:02:43.739Z,84.7897
2023-04-16T09:03:46.614Z,85.3202
2023-04-16T09:04:49.425Z,85.2915
2023-04-16T09:05:52.329Z,85.1186
2023-04-16T09:06:55.301Z,85.0830
2023-04-16T09:07:58.201Z,85.3811
2023-04-16T09:09:01.166Z,85.3979
2023-04-16T09:10:04.134Z,84.9778
2023-04-16T09:11:07.312Z,84.3946
2023-04-16T09:12:10.000Z,83.9149
2023-04-16T09:13:12.920Z,83.6377
2023-04-16T09:14:15.867Z,82.9875
2023-04-16T09:15:18.796Z,83.7405
2023-04-16T09:16:21.775Z,84.4786
2023-04-16T09:17:24.740Z,85.0196
2023-04-16T09:18:27.638Z,85.1982
2023-04-16T09:19:30.569Z,85.1897
2023-04-16T09:20:33.515Z,84.9210
2023-04-16T09:21:36.488Z,84.8217
2023-04-16T09:22:39.429Z,84.4880
2023-04-16T09:23:42.358Z,83.9801
2023-04-16T09:24:45.311Z,84.0334
2023-04-16T09:25:48.274Z,84.6247
2023-04-16T09:26:51.209Z,84.9805
2023-04-16T09:27:54.268Z,84.3812
2023-04-16T09:28:57.098Z,84.3687
2023-04-16T09:30:00.045Z,84.2989
2023-04-16T09:31:02.983Z,84.5918
2023-04-16T09:32:06.013Z,84.1177
2023-04-16T09:33:09.061Z,83.9369
2023-04-16T09:34:11.820Z,83.4283
2023-04-16T09:35:14.800Z,82.5922
2023-04-16T09:36:17.709Z,82.7980
2023-04-16T09:37:20.632Z,83.3018
2023-04-16T09:38:23.596Z,83.4828
2023-04-16T09:39:26.530Z,84.0269
2023-04-16T09:40:29.469Z,83.9134
2023-04-16T09:41:32.432Z,83.4995
2023-04-16T09:42:35.356Z,83.1975
2023-04-16T09:43:38.313Z,83.1563
2023-04-16T09:44:41.247Z,83.5115
2023-04-16T09:45:44.233Z,84.1115
2023-04-16T09:46:47.139Z,84.3662
2023-04-16T09:47:50.174Z,83.8857
2023-04-16T09:48:53.020Z,82.8013
2023-04-16T09:49:55.964Z,82.5659
2023-04-16T09:50:58.911Z,82.9016
2023-04-16T09:52:01.856Z,82.2522
2023-04-16T09:53:04.891Z,82.6121
2023-04-16T09:54:07.835Z,82.7357
2023-04-16T09:55:10.688Z,82.4727
2023-04-16T09:56:13.706Z,81.4632
2023-04-16T09:57:16.587Z,82.1995
2023-04-16T09:58:19.581Z,82.3187
2023-04-16T09:59:22.539Z,82.4047
2023-04-16T10:00:25.432Z,82.3351
2023-04-16T10:01:28.391Z,81.9476
2023-04-16T10:02:31.375Z,81.4028
2023-04-16T10:03:34.514Z,81.1325
2023-04-16T10:04:37.233Z,81.2550
2023-04-16T10:05:40.136Z,81.3861
2023-04-16T10:06:43.091Z,81.6528
2023-04-16T10:07:46.054Z,81.4123
2023-04-16T10:08:50.260Z,80.0196
2023-04-16T10:09:52.044Z,81.0428
2023-04-16T10:10:54.877Z,81.2482
2023-04-16T10:11:57.841Z,81.1206
2023-04-16T10:13:00.832Z,81.9941
2023-04-16T10:14:03.742Z,82.2546
2023-04-16T10:15:06.680Z,82.2059
2023-04-16T10:16:09.607Z,82.3974
2023-04-16T10:17:12.661Z,82.8023
2023-04-16T10:18:15.522Z,82.9006
2023-04-16T10:19:18.503Z,82.6848
2023-04-16T10:20:21.401Z,82.2297
2023-04-16T10:21:24.357Z,82.9250
2023-04-16T10:22:27.307Z,83.4779
2023-04-16T10:23:30.276Z,83.3330
2023-04-16T10:24:33.198Z,83.2062
2023-04-16T10:25:36.135Z,83.3168
2023-04-16T10:26:39.064Z,82.7129
2023-04-16T10:27:42.009Z,81.9421
2023-04-16T10:28:44.953Z,81.4751
2023-04-16T10:29:47.910Z,80.8905
2023-04-16T10:30:50.875Z,82.7317
2023-04-16T10:31:53.831Z,82.0094
2023-04-16T10:32:58.958Z,82.4371
2023-04-16T10:33:59.672Z,82.7403
2023-04-16T10:35:02.650Z,83.0245
2023-04-16T10:36:07.677Z,83.0239
2023-04-16T10:37:08.505Z,82.5110
2023-04-16T10:38:11.451Z,81.9299
2023-04-16T10:39:16.843Z,81.7994
2023-04-16T10:40:17.441Z,82.0533
2023-04-16T10:41:20.307Z,82.0285
2023-04-16T10:42:23.245Z,81.8372
2023-04-16T10:43:26.170Z,81.6753
2023-04-16T10:44:29.118Z,82.0177
2023-04-16T10:45:32.072Z,82.5768
2023-04-16T10:46:35.095Z,82.8513
2023-04-16T10:47:38.057Z,82.7562
2023-04-16T10:48:49.676Z,82.4188
2023-04-16T10:49:44.031Z,82.6080
2023-04-16T10:50:46.846Z,82.6511
2023-04-16T10:51:49.742Z,82.9895
2023-04-16T10:52:52.698Z,82.9022
2023-04-16T10:53:55.668Z,82.8706
2023-04-16T10:54:58.570Z,82.5038
2023-04-16T10:56:01.597Z,82.4181
2023-04-16T10:57:04.780Z,82.2022
2023-04-16T10:58:07.414Z,81.9082
2023-04-16T10:59:10.543Z,81.6095
2023-04-16T11:00:13.295Z,82.1400
2023-04-16T11:01:16.313Z,82.3414
2023-04-16T11:02:19.720Z,82.0040
2023-04-16T11:03:22.221Z,81.7528
2023-04-16T11:04:25.387Z,82.1351
2023-04-16T11:05:28.010Z,82.1716
2023-04-16T11:06:30.965Z,81.9702
2023-04-16T11:07:33.936Z,81.7803
2023-04-16T11:08:51.092Z,82.2585
2023-04-16T11:09:39.833Z,82.1346
2023-04-16T11:10:42.743Z,82.0383
2023-04-16T11:11:45.679Z,81.5934
2023-04-16T11:12:48.638Z,82.6402
2023-04-16T11:13:51.574Z,82.8219
2023-04-16T11:14:54.643Z,83.0071
2023-04-16T11:15:57.489Z,83.0763
2023-04-16T11:17:00.403Z,83.0175
2023-04-16T11:18:03.385Z,82.7174
2023-04-16T11:19:06.296Z,82.9509
2023-04-16T11:20:19.474Z,83.1866
2023-04-16T11:21:12.326Z,82.9375
2023-04-16T11:22:15.125Z,82.2874
2023-04-16T11:23:18.080Z,82.2849
2023-04-16T11:24:21.016Z,82.6558
2023-04-16T11:25:23.989Z,82.8314
2023-04-16T11:26:26.931Z,82.9685
2023-04-16T11:27:29.874Z,82.5549
2023-04-16T11:28:32.804Z,82.6477
2023-04-16T11:29:35.743Z,82.4952
2023-04-16T11:30:38.726Z,81.5692
2023-04-16T11:31:41.707Z,82.6038
2023-04-16T11:32:44.655Z,82.7053
2023-04-16T11:33:47.523Z,82.9364
2023-04-16T11:34:50.453Z,82.8875
2023-04-16T11:35:53.408Z,83.1593
2023-04-16T11:36:56.340Z,82.9979
2023-04-16T11:37:59.405Z,83.0858
2023-04-16T11:39:02.248Z,83.0355
2023-04-16T11:40:05.186Z,83.2977
2023-04-16T11:41:08.151Z,82.9598
2023-04-16T11:42:11.217Z,83.6862
2023-04-16T11:43:14.028Z,83.3887
2023-04-16T11:44:16.972Z,82.9223
2023-04-16T11:45:19.988Z,82.7859
2023-04-16T11:46:27.825Z,82.6537
2023-04-16T11:47:25.949Z,81.8593
2023-04-16T11:48:28.800Z,80.5551
2023-04-16T11:49:31.713Z,81.0834
2023-04-16T11:50:34.676Z,82.0549
2023-04-16T11:51:37.591Z,82.1538
2023-04-16T11:52:40.561Z,81.6935
2023-04-16T11:53:43.510Z,81.9826
2023-04-16T11:54:46.445Z,81.6718
2023-04-16T11:55:49.382Z,82.2099
2023-04-16T11:56:52.333Z,82.5260
2023-04-16T11:57:55.302Z,82.5368
2023-04-16T11:58:58.250Z,81.5997
2023-04-16T12:00:03.472Z,82.1967
2023-04-16T12:01:04.118Z,81.0559
2023-04-16T12:02:07.210Z,81.8810
2023-04-16T12:03:10.347Z,82.5338
2023-04-16T12:04:13.164Z,82.3899
2023-04-16T12:05:15.932Z,81.7409
2023-04-16T12:06:18.834Z,81.5401
2023-04-16T12:07:21.790Z,81.2872
2023-04-16T12:08:24.725Z,81.9211
2023-04-16T12:09:27.705Z,82.0466
2023-04-16T12:10:30.636Z,82.3655
2023-04-16T12:11:33.565Z,81.5768
2023-04-16T12:12:36.564Z,81.2275
2023-04-16T12:13:39.480Z,81.7646
2023-04-16T12:14:42.395Z,80.8999
2023-04-16T12:15:45.367Z,81.4309
2023-04-16T12:16:48.419Z,81.1481
2023-04-16T12:17:51.270Z,81.5146
2023-04-16T12:18:54.242Z,81.2638
2023-04-16T12:19:57.143Z,81.1228
2023-04-16T12:21:00.173Z,81.2122
2023-04-16T12:22:03.116Z,81.1631
2023-04-16T12:23:06.073Z,80.6619
2023-04-16T12:24:08.999Z,81.5493
2023-04-16T12:25:11.981Z,81.3757
2023-04-16T12:26:15.002Z,80.7007
2023-04-16T12:27:17.878Z,81.0616
2023-04-16T12:28:20.777Z,80.8836
2023-04-16T12:29:23.804Z,80.3450
2023-04-16T12:30:26.685Z,79.3428
2023-04-16T12:31:29.625Z,80.3992
2023-04-16T12:32:32.583Z,80.3020
2023-04-16T12:33:35.521Z,79.4633
2023-04-16T12:34:49.220Z,80.5514
2023-04-16T12:35:41.423Z,80.5721
2023-04-16T12:36:44.354Z,80.7570
2023-04-16T12:37:47.301Z,80.4854
2023-04-16T12:38:50.267Z,80.3560
2023-04-16T12:39:53.198Z,80.6132
2023-04-16T12:40:56.191Z,80.5341